createdAt,value
2019-04-07T00:00:44.502Z,50.64
2019-04-07T00:01:51.440Z,50.33
2019-04-07T00:02:57.090Z,50.52
2019-04-07T00:04:02.581Z,50.53
2019-04-07T00:05:13.040Z,51.08
2019-04-07T00:06:14.475Z,51.62
2019-04-07T00:07:20.090Z,51.03
2019-04-07T00:08:25.297Z,50.97
2019-04-07T00:09:30.362Z,50.46
2019-04-07T00:10:35.987Z,50.52
2019-04-07T00:11:40.924Z,50.04
2019-04-07T00:12:45.523Z,50.09
2019-04-07T00:13:51.787Z,50.23
2019-04-07T00:14:56.448Z,50.48
2019-04-07T00:16:01.274Z,50.15
2019-04-07T00:17:06.814Z,49.83
2019-04-07T00:18:11.763Z,49.87
2019-04-07T00:19:17.241Z,49.88
2019-04-07T00:20:22.045Z,49.75
2019-04-07T00:21:27.297Z,49.91
2019-04-07T00:22:32.386Z,49.91
2019-04-07T00:23:37.586Z,49.61
2019-04-07T00:24:42.484Z,49.64
2019-04-07T00:25:47.147Z,49.91
2019-04-07T00:26:52.516Z,49.35
2019-04-07T00:27:57.531Z,49.54
2019-04-07T00:29:02.435Z,49.83
2019-04-07T00:30:08.904Z,49.76
2019-04-07T00:31:13.501Z,49.91
2019-04-07T00:32:18.664Z,49.90
2019-04-07T00:33:24.118Z,50.05
2019-04-07T00:34:28.933Z,50.31
2019-04-07T00:35:33.674Z,50.32
2019-04-07T00:36:38.661Z,50.79
2019-04-07T00:37:43.993Z,50.67
2019-04-07T00:38:48.943Z,50.50
2019-04-07T00:39:54.142Z,50.93
2019-04-07T00:40:59.251Z,50.39
2019-04-07T00:42:04.182Z,50.63
2019-04-07T00:43:09.980Z,50.36
2019-04-07T00:44:14.891Z,50.52
2019-04-07T00:45:20.636Z,50.35
2019-04-07T00:46:25.878Z,50.49
2019-04-07T00:47:31.192Z,51.43
2019-04-07T00:48:36.434Z,51.66
2019-04-07T00:49:42.191Z,50.96
2019-04-07T00:50:48.130Z,50.87
2019-04-07T00:51:54.307Z,50.60
2019-04-07T00:53:00.198Z,50.60
2019-04-07T00:54:05.073Z,50.72
2019-04-07T00:55:09.958Z,52.33
2019-04-07T00:56:15.780Z,51.07
2019-04-07T00:57:21.088Z,51.92
2019-04-07T00:58:26.888Z,52.50
2019-04-07T00:59:32.004Z,51.88
2019-04-07T01:00:38.080Z,51.77
2019-04-07T01:01:42.775Z,51.45
2019-04-07T01:02:47.503Z,51.05
2019-04-07T01:03:55.667Z,50.76
2019-04-07T01:05:00.342Z,50.40
2019-04-07T01:06:04.983Z,50.41
2019-04-07T01:07:10.292Z,50.27
2019-04-07T01:08:15.550Z,50.66
2019-04-07T01:09:20.416Z,50.89
2019-04-07T01:10:26.100Z,50.40
2019-04-07T01:11:30.590Z,50.73
2019-04-07T01:12:35.904Z,50.45
2019-04-07T01:13:40.830Z,50.95
2019-04-07T01:14:46.678Z,51.35
2019-04-07T01:15:51.426Z,50.75
2019-04-07T01:16:56.400Z,50.86
2019-04-07T01:18:02.124Z,50.79
2019-04-07T01:19:07.726Z,51.49
2019-04-07T01:20:12.701Z,51.58
2019-04-07T01:21:17.742Z,51.76
2019-04-07T01:22:23.246Z,52.08
2019-04-07T01:23:28.258Z,52.07
2019-04-07T01:24:34.073Z,52.09
2019-04-07T01:25:39.531Z,51.57
2019-04-07T01:26:44.725Z,52.07
2019-04-07T01:27:50.042Z,51.89
2019-04-07T01:28:55.441Z,51.97
2019-04-07T01:30:00.813Z,51.65
2019-04-07T01:31:07.125Z,51.60
2019-04-07T01:32:11.584Z,51.42
2019-04-07T01:33:16.526Z,51.02
2019-04-07T01:34:21.489Z,51.38
2019-04-07T01:35:26.781Z,51.17
2019-04-07T01:36:32.513Z,51.50
2019-04-07T01:37:37.861Z,51.37
2019-04-07T01:38:43.290Z,52.07
2019-04-07T01:39:48.326Z,52.04
2019-04-07T01:41:03.134Z,52.26
2019-04-07T01:42:30.167Z,51.79
2019-04-07T01:43:49.449Z,51.25
2019-04-07T01:45:12.735Z,50.45
2019-04-07T01:46:42.763Z,50.00
2019-04-07T01:47:57.019Z,49.74
2019-04-07T01:49:11.619Z,50.20
2019-04-07T01:50:25.513Z,50.29
2019-04-07T01:51:50.386Z,50.97
2019-04-07T01:53:20.351Z,50.76
2019-04-07T01:54:53.787Z,50.72
2019-04-07T01:56:08.158Z,50.35
2019-04-07T01:57:32.317Z,51.18
2019-04-07T01:59:12.175Z,51.51
2019-04-07T02:00:34.626Z,51.78
2019-04-07T02:01:57.119Z,51.30
2019-04-07T02:03:07.512Z,50.94
2019-04-07T02:04:23.692Z,51.07
2019-04-07T02:05:59.224Z,51.41
2019-04-07T02:07:22.661Z,51.33
2019-04-07T02:08:45.448Z,51.09
2019-04-07T02:10:15.204Z,50.95
2019-04-07T02:11:41.877Z,51.51
2019-04-07T02:13:04.350Z,51.70
2019-04-07T02:14:28.248Z,51.50
2019-04-07T02:15:52.682Z,51.56
2019-04-07T02:17:09.864Z,51.89
2019-04-07T02:18:23.457Z,51.39
2019-04-07T02:19:35.954Z,51.02
2019-04-07T02:21:13.037Z,50.78
2019-04-07T02:22:39.684Z,50.82
2019-04-07T02:23:57.597Z,50.85
2019-04-07T02:25:11.965Z,50.98
2019-04-07T02:26:23.628Z,51.56
2019-04-07T02:27:34.817Z,51.34
2019-04-07T02:29:10.483Z,51.06
2019-04-07T02:30:33.238Z,51.38
2019-04-07T02:32:09.750Z,51.28
2019-04-07T02:33:39.536Z,51.54
2019-04-07T02:34:50.949Z,52.18
2019-04-07T02:36:17.886Z,52.93
2019-04-07T02:37:36.984Z,52.73
2019-04-07T02:39:03.539Z,53.66
2019-04-07T02:40:26.708Z,53.68
2019-04-07T02:42:05.996Z,53.38
2019-04-07T02:43:24.166Z,52.70
2019-04-07T02:44:42.690Z,52.79
2019-04-07T02:46:05.857Z,52.99
2019-04-07T02:47:15.973Z,52.71
2019-04-07T02:48:46.733Z,52.24
2019-04-07T02:50:17.669Z,52.58
2019-04-07T02:51:34.366Z,53.13
2019-04-07T02:52:54.831Z,52.93
2019-04-07T02:54:17.621Z,52.90
2019-04-07T02:55:30.040Z,52.39
2019-04-07T02:57:09.896Z,53.19
2019-04-07T02:58:36.430Z,52.63
2019-04-07T02:59:48.558Z,51.88
2019-04-07T03:01:18.498Z,50.92
2019-04-07T03:02:31.928Z,51.26
2019-04-07T03:03:50.234Z,51.12
2019-04-07T03:05:06.442Z,51.42
2019-04-07T03:06:50.009Z,51.63
2019-04-07T03:08:01.597Z,52.96
2019-04-07T03:09:22.077Z,53.61
2019-04-07T03:10:48.739Z,53.18
2019-04-07T03:12:05.460Z,53.07
2019-04-07T03:13:27.133Z,52.51
2019-04-07T03:14:54.369Z,52.73
2019-04-07T03:16:11.914Z,52.10
2019-04-07T03:17:30.085Z,51.71
2019-04-07T03:18:40.818Z,51.70
2019-04-07T03:19:54.105Z,51.45
2019-04-07T03:21:19.448Z,51.48
2019-04-07T03:22:42.430Z,51.57
2019-04-07T03:24:06.381Z,51.80
2019-04-07T03:25:22.119Z,51.31
2019-04-07T03:26:49.087Z,51.02
2019-04-07T03:28:18.124Z,51.21
2019-04-07T03:29:49.323Z,50.91
2019-04-07T03:31:12.839Z,51.16
2019-04-07T03:32:40.026Z,51.50
2019-04-07T03:34:04.133Z,51.92
2019-04-07T03:35:20.951Z,51.19
2019-04-07T03:36:41.125Z,51.63
2019-04-07T03:38:00.930Z,51.98
2019-04-07T03:39:26.624Z,51.43
2019-04-07T03:40:44.107Z,52.05
2019-04-07T03:41:55.552Z,52.74
2019-04-07T03:43:09.389Z,52.91
2019-04-07T03:44:23.162Z,52.25
2019-04-07T03:46:02.469Z,52.21
2019-04-07T03:47:14.263Z,52.71
2019-04-07T03:48:41.598Z,52.38
2019-04-07T03:49:52.978Z,52.94
2019-04-07T03:51:06.787Z,52.88
2019-04-07T03:52:22.409Z,52.43
2019-04-07T03:53:46.180Z,51.83
2019-04-07T03:55:15.642Z,52.07
2019-04-07T03:56:39.889Z,52.58
2019-04-07T03:58:09.941Z,52.56
2019-04-07T03:59:33.398Z,52.77
2019-04-07T04:01:35.585Z,52.10
2019-04-07T04:03:02.613Z,52.22
2019-04-07T04:04:26.356Z,52.34
2019-04-07T04:05:53.865Z,52.58
2019-04-07T04:07:18.027Z,52.55
2019-04-07T04:08:26.935Z,52.12
2019-04-07T04:09:45.585Z,52.44
2019-04-07T04:11:09.570Z,52.74
2019-04-07T04:12:39.681Z,52.66
2019-04-07T04:14:04.584Z,52.39
2019-04-07T04:15:15.007Z,52.43
2019-04-07T04:16:25.727Z,53.09
2019-04-07T04:17:30.688Z,52.86
2019-04-07T04:18:35.528Z,52.17
2019-04-07T04:19:40.981Z,51.43
2019-04-07T04:20:46.409Z,51.41
2019-04-07T04:21:52.432Z,51.03
2019-04-07T04:22:58.263Z,51.49
2019-04-07T04:24:04.151Z,51.89
2019-04-07T04:25:10.718Z,51.82
2019-04-07T04:26:16.064Z,52.00
2019-04-07T04:27:21.526Z,52.13
2019-04-07T04:28:27.341Z,53.51
2019-04-07T04:29:33.224Z,53.47
2019-04-07T04:30:37.980Z,52.84
2019-04-07T04:31:43.414Z,52.71
2019-04-07T04:32:48.427Z,52.45
2019-04-07T04:33:54.460Z,52.73
2019-04-07T04:34:59.486Z,52.69
2019-04-07T04:36:04.550Z,52.28
2019-04-07T04:37:09.509Z,52.78
2019-04-07T04:38:14.437Z,52.78
2019-04-07T04:39:20.948Z,52.58
2019-04-07T04:40:26.338Z,52.53
2019-04-07T04:41:31.294Z,52.79
2019-04-07T04:42:35.971Z,52.48
2019-04-07T04:43:41.100Z,52.65
2019-04-07T04:44:46.359Z,52.72
2019-04-07T04:45:53.221Z,52.54
2019-04-07T04:46:58.606Z,53.93
2019-04-07T04:48:04.458Z,54.11
2019-04-07T04:49:09.269Z,53.78
2019-04-07T04:50:14.819Z,53.61
2019-04-07T04:51:19.963Z,54.17
2019-04-07T04:52:25.155Z,54.31
2019-04-07T04:53:30.850Z,53.91
2019-04-07T04:54:36.155Z,53.95
2019-04-07T04:55:40.964Z,54.02
2019-04-07T04:56:46.863Z,53.81
2019-04-07T04:57:51.580Z,54.09
2019-04-07T04:58:56.616Z,53.58
2019-04-07T05:00:01.897Z,53.84
2019-04-07T05:01:07.792Z,53.93
2019-04-07T05:02:12.250Z,54.15
2019-04-07T05:03:18.026Z,54.14
2019-04-07T05:04:24.068Z,54.23
2019-04-07T05:05:29.214Z,55.52
2019-04-07T05:06:34.723Z,55.35
2019-04-07T05:07:50.241Z,55.45
2019-04-07T05:08:46.857Z,54.67
2019-04-07T05:09:54.542Z,55.33
2019-04-07T05:10:58.843Z,54.26
2019-04-07T05:12:05.604Z,54.59
2019-04-07T05:13:10.559Z,54.67
2019-04-07T05:14:15.414Z,53.76
2019-04-07T05:15:21.019Z,53.14
2019-04-07T05:16:28.893Z,53.29
2019-04-07T05:17:33.781Z,52.85
2019-04-07T05:18:38.947Z,53.13
2019-04-07T05:19:44.352Z,52.94
2019-04-07T05:20:49.942Z,53.05
2019-04-07T05:21:54.932Z,52.75
2019-04-07T05:23:00.976Z,53.50
2019-04-07T05:24:06.819Z,52.70
2019-04-07T05:25:12.375Z,52.72
2019-04-07T05:26:17.918Z,52.85
2019-04-07T05:27:22.885Z,52.39
2019-04-07T05:28:28.666Z,52.21
2019-04-07T05:29:34.187Z,52.90
2019-04-07T05:30:39.235Z,52.21
2019-04-07T05:31:44.770Z,52.19
2019-04-07T05:32:49.962Z,52.36
2019-04-07T05:33:55.366Z,51.76
2019-04-07T05:35:01.052Z,52.04
2019-04-07T05:36:05.974Z,52.36
2019-04-07T05:37:11.499Z,52.88
2019-04-07T05:38:16.606Z,52.13
2019-04-07T05:39:21.753Z,52.41
2019-04-07T05:40:26.691Z,52.31
2019-04-07T05:41:31.343Z,51.86
2019-04-07T05:42:36.300Z,51.79
2019-04-07T05:43:41.531Z,51.92
2019-04-07T05:44:46.317Z,51.89
2019-04-07T05:45:51.524Z,52.02
2019-04-07T05:46:57.003Z,51.96
2019-04-07T05:48:02.135Z,51.99
2019-04-07T05:49:07.596Z,51.83
2019-04-07T05:50:12.318Z,51.59
2019-04-07T05:51:17.689Z,52.01
2019-04-07T05:52:22.793Z,51.81
2019-04-07T05:53:27.816Z,51.73
2019-04-07T05:54:32.853Z,51.33
2019-04-07T05:55:38.155Z,51.46
2019-04-07T05:56:43.715Z,51.86
2019-04-07T05:57:49.656Z,51.80
2019-04-07T05:58:54.935Z,51.13
2019-04-07T06:00:00.405Z,51.18
2019-04-07T06:01:05.368Z,51.54
2019-04-07T06:02:10.943Z,51.64
2019-04-07T06:03:16.505Z,50.84
2019-04-07T06:04:22.022Z,51.18
2019-04-07T06:05:27.118Z,50.54
2019-04-07T06:06:33.012Z,50.71
2019-04-07T06:07:38.260Z,50.94
2019-04-07T06:08:43.122Z,50.53
2019-04-07T06:09:51.267Z,50.41
2019-04-07T06:10:59.992Z,50.41
2019-04-07T06:12:05.998Z,50.37
2019-04-07T06:13:11.102Z,50.68
2019-04-07T06:14:16.488Z,50.14
2019-04-07T06:15:23.187Z,51.12
2019-04-07T06:16:28.820Z,49.65
2019-04-07T06:17:33.643Z,49.93
2019-04-07T06:18:38.832Z,49.76
2019-04-07T06:19:44.437Z,50.26
2019-04-07T06:20:50.372Z,49.39
2019-04-07T06:21:55.593Z,49.74
2019-04-07T06:23:00.378Z,49.90
2019-04-07T06:24:05.133Z,50.48
2019-04-07T06:25:11.021Z,49.68
2019-04-07T06:26:17.285Z,49.18
2019-04-07T06:27:22.789Z,49.21
2019-04-07T06:28:29.642Z,49.17
2019-04-07T06:29:34.540Z,48.94
2019-04-07T06:30:39.564Z,48.61
2019-04-07T06:31:44.759Z,48.56
2019-04-07T06:32:49.622Z,48.48
2019-04-07T06:33:55.189Z,47.81
2019-04-07T06:35:00.584Z,47.10
2019-04-07T06:36:05.662Z,46.66
2019-04-07T06:37:10.762Z,46.68
2019-04-07T06:38:16.409Z,46.75
2019-04-07T06:39:21.524Z,46.54
2019-04-07T06:40:27.310Z,46.42
2019-04-07T06:41:33.369Z,45.71
2019-04-07T06:42:40.437Z,45.68
2019-04-07T06:43:45.386Z,45.50
2019-04-07T06:44:52.210Z,45.24
2019-04-07T06:46:19.632Z,44.84
2019-04-07T06:47:30.812Z,44.34
2019-04-07T06:48:42.557Z,44.12
2019-04-07T06:50:18.983Z,44.31
2019-04-07T06:51:35.658Z,44.13
2019-04-07T06:53:17.461Z,44.20
2019-04-07T06:54:37.710Z,44.41
2019-04-07T06:56:20.738Z,43.73
2019-04-07T06:57:50.738Z,43.31
2019-04-07T06:59:14.992Z,43.54
2019-04-07T07:00:53.610Z,43.40
2019-04-07T07:02:14.128Z,42.36
2019-04-07T07:03:39.032Z,41.93
2019-04-07T07:05:13.604Z,41.19
2019-04-07T07:06:29.474Z,41.24
2019-04-07T07:07:54.033Z,40.81
2019-04-07T07:09:26.461Z,40.56
2019-04-07T07:10:38.863Z,40.34
2019-04-07T07:12:06.287Z,39.86
2019-04-07T07:13:29.864Z,39.35
2019-04-07T07:14:47.830Z,39.02
2019-04-07T07:16:17.479Z,37.95
2019-04-07T07:17:31.113Z,35.32
2019-04-07T07:18:58.750Z,32.38
2019-04-07T07:20:27.568Z,30.66
2019-04-07T07:21:55.637Z,31.52
2019-04-07T07:23:13.348Z,33.64
2019-04-07T07:24:22.581Z,33.95
2019-04-07T07:25:23.445Z,31.21
2019-04-07T07:26:32.949Z,28.58
2019-04-07T07:27:38.914Z,26.63
2019-04-07T07:28:43.874Z,25.59
2019-04-07T07:29:51.883Z,24.17
2019-04-07T07:30:56.500Z,23.94
2019-04-07T07:32:03.773Z,23.04
2019-04-07T07:33:10.856Z,22.89
2019-04-07T07:34:15.575Z,22.41
2019-04-07T07:35:22.277Z,21.84
2019-04-07T07:36:28.449Z,21.44
2019-04-07T07:37:33.407Z,20.58
2019-04-07T07:38:38.582Z,20.75
2019-04-07T07:39:45.119Z,20.19
2019-04-07T07:40:52.652Z,19.49
2019-04-07T07:41:58.342Z,19.18
2019-04-07T07:43:03.520Z,19.08
2019-04-07T07:44:09.597Z,19.31
2019-04-07T07:45:15.535Z,18.76
2019-04-07T07:46:22.841Z,18.71
2019-04-07T07:47:27.708Z,18.84
2019-04-07T07:48:32.401Z,18.25
2019-04-07T07:49:40.350Z,18.80
2019-04-07T07:50:44.618Z,20.79
2019-04-07T07:51:50.568Z,22.72
2019-04-07T07:52:56.163Z,24.07
2019-04-07T07:54:02.090Z,25.14
2019-04-07T07:55:07.235Z,26.15
2019-04-07T07:56:21.471Z,26.23
2019-04-07T07:57:27.274Z,26.22
2019-04-07T07:58:33.645Z,24.40
2019-04-07T07:59:40.228Z,21.83
2019-04-07T08:00:46.080Z,20.30
2019-04-07T08:01:51.679Z,18.43
2019-04-07T08:02:57.295Z,17.16
2019-04-07T08:04:03.482Z,16.56
2019-04-07T08:05:09.253Z,15.53
2019-04-07T08:06:15.027Z,15.81
2019-04-07T08:07:20.328Z,15.58
2019-04-07T08:08:25.689Z,15.48
2019-04-07T08:09:31.786Z,14.76
2019-04-07T08:10:37.581Z,15.03
2019-04-07T08:11:43.524Z,14.43
2019-04-07T08:12:49.600Z,14.76
2019-04-07T08:13:55.364Z,14.62
2019-04-07T08:15:00.718Z,14.82
2019-04-07T08:16:06.337Z,14.38
2019-04-07T08:17:12.294Z,13.60
2019-04-07T08:18:19.606Z,12.97
2019-04-07T08:19:27.864Z,12.80
2019-04-07T08:20:30.632Z,14.53
2019-04-07T08:21:35.770Z,13.81
2019-04-07T08:22:43.632Z,13.44
2019-04-07T08:23:48.178Z,13.26
2019-04-07T08:24:53.549Z,13.13
2019-04-07T08:25:59.108Z,13.59
2019-04-07T08:27:04.080Z,13.24
2019-04-07T08:28:09.304Z,14.43
2019-04-07T08:29:14.933Z,14.32
2019-04-07T08:30:19.906Z,13.63
2019-04-07T08:31:25.110Z,13.41
2019-04-07T08:32:32.277Z,13.28
2019-04-07T08:33:37.458Z,13.15
2019-04-07T08:34:42.657Z,13.22
2019-04-07T08:35:48.030Z,13.18
2019-04-07T08:36:53.257Z,13.33
2019-04-07T08:37:58.501Z,12.49
2019-04-07T08:39:20.852Z,12.87
2019-04-07T08:40:21.718Z,13.19
2019-04-07T08:41:27.830Z,12.74
2019-04-07T08:42:35.796Z,12.46
2019-04-07T08:43:42.937Z,12.30
2019-04-07T08:44:49.754Z,12.64
2019-04-07T08:45:56.919Z,12.54
2019-04-07T08:47:02.584Z,13.14
2019-04-07T08:48:08.967Z,12.81
2019-04-07T08:49:16.938Z,13.31
2019-04-07T08:50:22.780Z,13.72
2019-04-07T08:51:30.774Z,14.85
2019-04-07T08:52:38.533Z,16.36
2019-04-07T08:53:44.056Z,16.63
2019-04-07T08:54:51.346Z,17.72
2019-04-07T08:55:55.448Z,18.55
2019-04-07T08:57:00.238Z,19.17
2019-04-07T08:58:06.590Z,19.15
2019-04-07T08:59:15.855Z,19.04
2019-04-07T09:00:22.148Z,20.19
2019-04-07T09:01:29.612Z,20.09
2019-04-07T09:02:33.524Z,20.56
2019-04-07T09:03:38.832Z,19.77
2019-04-07T09:04:47.330Z,19.24
2019-04-07T09:05:50.324Z,18.96
2019-04-07T09:06:59.453Z,18.34
2019-04-07T09:08:05.547Z,17.17
2019-04-07T09:09:09.069Z,15.73
2019-04-07T09:10:19.911Z,14.51
2019-04-07T09:11:25.306Z,14.00
2019-04-07T09:12:31.360Z,13.32
2019-04-07T09:13:38.387Z,12.81
2019-04-07T09:14:43.993Z,12.93
2019-04-07T09:16:08.217Z,12.14
2019-04-07T09:17:31.570Z,12.22
2019-04-07T09:18:32.109Z,14.38
2019-04-07T09:19:54.801Z,14.18
2019-04-07T09:21:20.383Z,14.29
2019-04-07T09:22:53.810Z,13.21
2019-04-07T09:24:15.211Z,12.81
2019-04-07T09:25:40.709Z,11.72
2019-04-07T09:26:53.287Z,11.92
2019-04-07T09:28:17.896Z,11.82
2019-04-07T09:29:46.055Z,12.61
2019-04-07T09:31:22.237Z,12.04
2019-04-07T09:32:40.676Z,11.69
2019-04-07T09:34:04.465Z,10.09
2019-04-07T09:35:25.709Z,10.22
2019-04-07T09:36:40.743Z,11.02
2019-04-07T09:37:56.777Z,10.69
2019-04-07T09:39:39.480Z,10.80
2019-04-07T09:41:07.246Z,9.95
2019-04-07T09:42:27.964Z,10.32
2019-04-07T09:43:42.744Z,10.52
2019-04-07T09:45:09.564Z,11.12
2019-04-07T09:46:21.950Z,10.71
2019-04-07T09:47:46.845Z,10.10
2019-04-07T09:49:13.848Z,10.12
2019-04-07T09:50:37.541Z,12.04
2019-04-07T09:52:10.198Z,11.51
2019-04-07T09:53:34.980Z,9.94
2019-04-07T09:54:54.620Z,11.31
2019-04-07T09:56:17.292Z,10.83
2019-04-07T09:57:31.426Z,11.76
2019-04-07T09:59:01.457Z,11.27
2019-04-07T10:00:21.668Z,11.14
2019-04-07T10:01:39.996Z,11.76
2019-04-07T10:03:05.956Z,13.48
2019-04-07T10:04:18.270Z,14.77
2019-04-07T10:05:47.926Z,17.63
2019-04-07T10:07:18.357Z,17.18
2019-04-07T10:08:34.188Z,17.34
2019-04-07T10:10:04.551Z,17.84
2019-04-07T10:11:24.001Z,17.99
2019-04-07T10:12:36.468Z,18.71
2019-04-07T10:13:58.817Z,18.12
2019-04-07T10:15:19.935Z,18.75
2019-04-07T10:16:37.923Z,18.49
2019-04-07T10:17:52.017Z,18.84
2019-04-07T10:19:31.679Z,18.43
2019-04-07T10:20:52.737Z,19.42
2019-04-07T10:22:09.530Z,20.08
2019-04-07T10:23:42.977Z,19.47
2019-04-07T10:25:18.329Z,19.92
2019-04-07T10:26:40.734Z,20.06
2019-04-07T10:28:00.536Z,20.50
2019-04-07T10:29:27.588Z,21.82
2019-04-07T10:30:55.006Z,20.95
2019-04-07T10:32:18.947Z,21.15
2019-04-07T10:33:44.918Z,20.81
2019-04-07T10:35:12.467Z,20.45
2019-04-07T10:36:34.873Z,21.84
2019-04-07T10:38:00.720Z,22.90
2019-04-07T10:39:25.302Z,22.75
2019-04-07T10:40:55.567Z,22.47
2019-04-07T10:42:29.308Z,22.36
2019-04-07T10:43:45.164Z,22.74
2019-04-07T10:45:09.009Z,21.75
2019-04-07T10:46:36.240Z,22.69
2019-04-07T10:47:58.723Z,22.55
2019-04-07T10:49:10.405Z,22.09
2019-04-07T10:50:25.681Z,22.29
2019-04-07T10:51:52.465Z,22.30
2019-04-07T10:53:19.614Z,22.96
2019-04-07T10:54:45.155Z,22.05
2019-04-07T10:56:09.859Z,21.99
2019-04-07T10:57:36.715Z,20.92
2019-04-07T10:59:06.619Z,21.14
2019-04-07T11:00:34.139Z,21.63
2019-04-07T11:01:50.211Z,21.46
2019-04-07T11:03:14.140Z,21.57
2019-04-07T11:04:32.584Z,21.23
2019-04-07T11:05:46.981Z,20.92
2019-04-07T11:07:14.229Z,20.88
2019-04-07T11:08:40.027Z,21.30
2019-04-07T11:10:06.920Z,22.60
2019-04-07T11:11:30.319Z,22.23
2019-04-07T11:12:58.173Z,22.31
2019-04-07T11:14:13.479Z,22.74
2019-04-07T11:15:55.515Z,22.30
2019-04-07T11:17:10.127Z,22.86
2019-04-07T11:18:20.765Z,22.36
2019-04-07T11:19:47.816Z,21.99
2019-04-07T11:21:30.294Z,21.74
2019-04-07T11:22:53.173Z,21.81
2019-04-07T11:24:35.810Z,21.63
2019-04-07T11:26:06.948Z,21.61
2019-04-07T11:27:36.551Z,21.79
2019-04-07T11:28:57.199Z,20.80
2019-04-07T11:30:09.759Z,19.87
2019-04-07T11:31:19.676Z,20.33
2019-04-07T11:32:46.594Z,20.74
2019-04-07T11:33:59.012Z,21.33
2019-04-07T11:35:11.348Z,20.18
2019-04-07T11:36:27.104Z,19.88
2019-04-07T11:37:41.872Z,20.57
2019-04-07T11:38:51.721Z,19.82
2019-04-07T11:40:43.304Z,19.19
2019-04-07T11:41:54.762Z,19.60
2019-04-07T11:43:21.429Z,19.06
2019-04-07T11:44:35.710Z,17.53
2019-04-07T11:46:08.917Z,15.29
2019-04-07T11:47:28.630Z,14.30
2019-04-07T11:48:39.460Z,12.40
2019-04-07T11:49:51.340Z,11.24
2019-04-07T11:51:24.283Z,11.38
2019-04-07T11:52:35.269Z,10.26
2019-04-07T11:53:47.851Z,10.13
2019-04-07T11:55:05.312Z,9.81
2019-04-07T11:56:21.920Z,9.43
2019-04-07T11:58:09.868Z,9.43
2019-04-07T11:59:30.639Z,9.74
2019-04-07T12:00:48.806Z,9.01
2019-04-07T12:02:00.850Z,9.74
2019-04-07T12:03:26.859Z,9.23
2019-04-07T12:04:48.980Z,10.37
2019-04-07T12:06:14.237Z,8.86
2019-04-07T12:07:37.211Z,8.69
2019-04-07T12:09:00.200Z,8.93
2019-04-07T12:10:27.185Z,8.11
2019-04-07T12:11:50.445Z,8.03
2019-04-07T12:13:21.101Z,9.48
2019-04-07T12:14:52.445Z,10.23
2019-04-07T12:16:09.255Z,8.82
2019-04-07T12:17:33.976Z,9.08
2019-04-07T12:19:04.561Z,9.10
2019-04-07T12:20:16.327Z,9.80
2019-04-07T12:21:38.084Z,9.69
2019-04-07T12:23:22.924Z,9.98
2019-04-07T12:24:35.069Z,8.56
2019-04-07T12:25:57.642Z,11.96
2019-04-07T12:27:30.322Z,14.83
2019-04-07T12:28:50.419Z,16.54
2019-04-07T12:30:22.402Z,12.71
2019-04-07T12:31:45.241Z,14.04
2019-04-07T12:34:30.479Z,15.30
2019-04-07T12:36:09.434Z,16.76
2019-04-07T12:37:45.427Z,16.76
2019-04-07T12:39:18.857Z,17.15
2019-04-07T12:40:34.251Z,17.70
2019-04-07T12:41:59.098Z,18.05
2019-04-07T12:43:23.034Z,17.02
2019-04-07T12:44:50.810Z,18.15
2019-04-07T12:46:19.464Z,18.37
2019-04-07T12:48:01.513Z,18.68
2019-04-07T12:49:14.462Z,17.77
2019-04-07T12:50:51.135Z,18.74
2019-04-07T12:52:27.256Z,18.45
2019-04-07T12:54:01.819Z,18.42
2019-04-07T12:55:35.043Z,19.05
2019-04-07T12:57:02.508Z,18.56
2019-04-07T12:58:24.469Z,18.98
2019-04-07T12:59:52.923Z,18.72
2019-04-07T13:01:19.118Z,18.90
2019-04-07T13:02:28.533Z,18.42
2019-04-07T13:03:42.701Z,18.09
2019-04-07T13:05:16.598Z,18.23
2019-04-07T13:06:42.271Z,19.03
2019-04-07T13:08:05.950Z,19.40
2019-04-07T13:09:27.861Z,18.96
2019-04-07T13:10:41.655Z,18.92
2019-04-07T13:12:08.639Z,19.57
2019-04-07T13:13:35.347Z,19.49
2019-04-07T13:15:00.013Z,20.23
2019-04-07T13:16:26.246Z,20.55
2019-04-07T13:17:58.325Z,20.27
2019-04-07T13:19:21.690Z,20.44
2019-04-07T13:20:54.837Z,20.66
2019-04-07T13:22:13.934Z,21.06
2019-04-07T13:23:28.711Z,21.36
2019-04-07T13:24:58.248Z,20.51
2019-04-07T13:26:18.714Z,20.43
2019-04-07T13:27:52.115Z,20.17
2019-04-07T13:29:04.345Z,19.95
2019-04-07T13:30:23.577Z,20.33
2019-04-07T13:31:54.121Z,20.58
2019-04-07T13:33:28.399Z,19.80
2019-04-07T13:34:50.441Z,20.72
2019-04-07T13:36:20.402Z,20.07
2019-04-07T13:37:31.123Z,19.96
2019-04-07T13:38:47.952Z,20.62
2019-04-07T13:40:11.462Z,20.94
2019-04-07T13:41:38.652Z,20.48
2019-04-07T13:42:58.868Z,20.89
2019-04-07T13:44:23.161Z,21.00
2019-04-07T13:46:17.165Z,21.04
2019-04-07T13:47:42.079Z,20.81
2019-04-07T13:49:00.237Z,20.40
2019-04-07T13:50:40.658Z,21.08
2019-04-07T13:52:10.699Z,21.39
2019-04-07T13:53:34.022Z,20.91
2019-04-07T13:55:07.768Z,21.20
2019-04-07T13:56:42.020Z,21.13
2019-04-07T13:58:12.061Z,21.31
2019-04-07T13:59:39.291Z,21.34
2019-04-07T14:01:00.853Z,21.53
2019-04-07T14:02:15.457Z,21.87
2019-04-07T14:03:45.664Z,21.81
2019-04-07T14:05:18.291Z,21.44
2019-04-07T14:06:46.734Z,21.08
2019-04-07T14:08:04.265Z,21.03
2019-04-07T14:09:30.534Z,20.83
2019-04-07T14:10:57.938Z,21.38
2019-04-07T14:12:26.074Z,21.87
2019-04-07T14:13:52.471Z,21.09
2019-04-07T14:15:22.212Z,20.87
2019-04-07T14:16:48.762Z,21.25
2019-04-07T14:18:29.366Z,21.03
2019-04-07T14:19:59.255Z,20.96
2019-04-07T14:21:32.434Z,21.18
2019-04-07T14:22:55.581Z,20.76
2019-04-07T14:24:11.450Z,21.00
2019-04-07T14:25:28.818Z,21.05
2019-04-07T14:26:41.257Z,21.60
2019-04-07T14:28:03.678Z,21.32
2019-04-07T14:29:33.927Z,21.31
2019-04-07T14:30:46.975Z,20.93
2019-04-07T14:32:02.085Z,21.22
2019-04-07T14:33:31.786Z,21.21
2019-04-07T14:35:14.178Z,20.56
2019-04-07T14:36:46.711Z,20.95
2019-04-07T14:38:11.344Z,21.49
2019-04-07T14:39:32.500Z,21.32
2019-04-07T14:40:57.514Z,20.66
2019-04-07T14:42:30.552Z,21.27
2019-04-07T14:43:53.027Z,21.15
2019-04-07T14:45:12.242Z,21.38
2019-04-07T14:46:49.012Z,21.99
2019-04-07T14:48:03.353Z,21.01
2019-04-07T14:49:20.319Z,21.60
2019-04-07T14:50:34.799Z,21.89
2019-04-07T14:51:58.129Z,22.25
2019-04-07T14:53:35.487Z,21.40
2019-04-07T14:54:57.019Z,22.25
2019-04-07T14:56:18.629Z,21.57
2019-04-07T14:57:39.027Z,21.98
2019-04-07T14:59:06.587Z,21.95
2019-04-07T15:00:29.527Z,22.10
2019-04-07T15:01:55.713Z,21.28
2019-04-07T15:03:02.075Z,21.98
2019-04-07T15:04:07.024Z,21.91
2019-04-07T15:05:21.816Z,21.69
2019-04-07T15:06:29.205Z,21.83
2019-04-07T15:07:48.810Z,21.82
2019-04-07T15:09:07.216Z,21.40
2019-04-07T15:10:20.232Z,21.46
2019-04-07T15:11:29.753Z,21.23
2019-04-07T15:12:42.358Z,20.89
2019-04-07T15:13:47.484Z,21.26
2019-04-07T15:14:52.751Z,21.51
2019-04-07T15:15:58.226Z,21.36
2019-04-07T15:17:03.606Z,21.22
2019-04-07T15:18:08.345Z,21.45
2019-04-07T15:19:13.774Z,21.26
2019-04-07T15:20:18.434Z,20.86
2019-04-07T15:21:23.980Z,21.53
2019-04-07T15:22:30.994Z,20.91
2019-04-07T15:23:35.794Z,20.97
2019-04-07T15:24:41.141Z,21.05
2019-04-07T15:25:47.268Z,20.79
2019-04-07T15:26:53.865Z,20.75
2019-04-07T15:28:01.321Z,21.47
2019-04-07T15:29:09.293Z,21.73
2019-04-07T15:30:15.274Z,21.21
2019-04-07T15:31:20.785Z,21.23
2019-04-07T15:32:29.003Z,21.21
2019-04-07T15:33:34.142Z,22.36
2019-04-07T15:34:42.297Z,22.58
2019-04-07T15:35:53.380Z,21.89
2019-04-07T15:36:58.997Z,22.35
2019-04-07T15:38:04.189Z,22.35
2019-04-07T15:39:10.982Z,21.98
2019-04-07T15:40:15.403Z,21.86
2019-04-07T15:41:20.923Z,22.17
2019-04-07T15:42:35.197Z,22.34
2019-04-07T15:43:35.550Z,21.81
2019-04-07T15:44:42.205Z,22.01
2019-04-07T15:45:47.015Z,22.21
2019-04-07T15:46:53.381Z,22.41
2019-04-07T15:48:00.503Z,22.64
2019-04-07T15:49:06.696Z,22.15
2019-04-07T15:50:11.730Z,22.88
2019-04-07T15:51:17.543Z,22.78
2019-04-07T15:52:22.990Z,22.50
2019-04-07T15:53:27.962Z,22.91
2019-04-07T15:54:33.892Z,22.47
2019-04-07T15:55:47.594Z,22.92
2019-04-07T15:56:49.316Z,23.49
2019-04-07T15:57:54.933Z,23.67
2019-04-07T15:59:00.764Z,23.35
2019-04-07T16:00:06.169Z,23.81
2019-04-07T16:01:11.800Z,23.50
2019-04-07T16:02:17.276Z,23.39
2019-04-07T16:03:22.357Z,23.37
2019-04-07T16:04:29.301Z,23.63
2019-04-07T16:05:40.394Z,23.55
2019-04-07T16:06:41.876Z,22.87